Time;durP1;ratioP1;P1;durP2;ratioP2;P2;SDS_P1;SDS_P2;PMS_P1;PMS_P2;Temp;Humidity;BMP_temperature;BMP_pressure;BME280_temperature;BME280_humidity;BME280_pressure;Samples;Min_cycle;Max_cycle;Signal;HPM_P1;HPM_P2
2023/03/19 00:02:11;;;;;;;3.15;1.38;;;;;;;;;;5041388;28;20485;-82
2023/03/19 00:04:36;;;;;;;3.03;1.20;;;;;;;;;;5043743;28;20017;-82
2023/03/19 00:07:02;;;;;;;1.10;1.05;;;;;;;;;;5043342;28;20441;-82
2023/03/19 00:09:28;;;;;;;1.65;0.63;;;;;;;;;;5045386;28;20408;-82
2023/03/19 00:11:53;;;;;;;1.45;0.75;;;;;;;;;;5044737;28;20025;-82
2023/03/19 00:14:19;;;;;;;1.83;1.42;;;;;;;;;;5040166;28;20040;-82
2023/03/19 00:16:45;;;;;;;4.10;1.30;;;;;;;;;;5042334;28;20025;-82
2023/03/19 00:19:10;;;;;;;1.10;1.08;;;;;;;;;;5039695;28;20017;-82
2023/03/19 00:21:36;;;;;;;0.60;0.60;;;;;;;;;;5041036;28;20095;-83
2023/03/19 00:24:01;;;;;;;0.45;0.45;;;;;;;;;;5043307;28;20028;-82
2023/03/19 00:26:34;;;;;;;1.25;0.75;;;;;;;;;;5047293;28;20020;-82
2023/03/19 00:29:00;;;;;;;0.68;0.60;;;;;;;;;;5044994;28;20052;-82
2023/03/19 00:31:28;;;;;;;0.98;0.73;;;;;;;;;;5042589;28;21033;-81
2023/03/19 00:33:56;;;;;;;1.30;1.08;;;;;;;;;;5039929;28;20025;-83
2023/03/19 00:36:22;;;;;;;1.30;1.10;;;;;;;;;;5041932;28;20468;-82
2023/03/19 00:38:48;;;;;;;0.70;0.70;;;;;;;;;;5045370;28;20032;-82
2023/03/19 00:41:14;;;;;;;0.38;0.38;;;;;;;;;;5040839;28;20025;-82
2023/03/19 00:43:40;;;;;;;1.27;0.68;;;;;;;;;;5046066;28;20025;-82
2023/03/19 00:46:05;;;;;;;1.25;0.68;;;;;;;;;;5040761;28;20040;-83
2023/03/19 00:48:31;;;;;;;1.20;0.40;;;;;;;;;;5043930;28;20794;-82
2023/03/19 00:51:08;;;;;;;1.98;1.10;;;;;;;;;;5042427;28;20044;-82
2023/03/19 00:53:38;;;;;;;0.75;0.65;;;;;;;;;;5037350;28;20050;-82
2023/03/19 00:56:04;;;;;;;;;;;;;;;;;;5040760;28;20029;-81
2023/03/19 00:58:30;;;;;;;0.55;0.55;;;;;;;;;;5045832;28;19912;-81
2023/03/19 01:00:55;;;;;;;2.45;0.95;;;;;;;;;;5045090;28;20569;-83
2023/03/19 01:03:21;;;;;;;0.70;0.70;;;;;;;;;;5046513;28;20029;-82
2023/03/19 01:05:49;;;;;;;1.85;1.15;;;;;;;;;;5047669;28;20105;-82
2023/03/19 01:08:16;;;;;;;3.60;1.98;;;;;;;;;;5043917;28;20021;-82
2023/03/19 01:10:43;;;;;;;1.67;1.38;;;;;;;;;;5041194;28;20025;-82
2023/03/19 01:13:09;;;;;;;3.08;1.35;;;;;;;;;;5050046;28;20043;-82
2023/03/19 01:15:39;;;;;;;0.98;0.80;;;;;;;;;;5047747;28;20039;-83
2023/03/19 01:18:06;;;;;;;2.70;0.90;;;;;;;;;;5059437;28;20025;-83
2023/03/19 01:20:32;;;;;;;0.55;0.47;;;;;;;;;;5045138;28;20381;-83
2023/03/19 01:22:58;;;;;;;0.32;0.32;;;;;;;;;;5043654;28;20025;-83
2023/03/19 01:25:23;;;;;;;1.95;0.65;;;;;;;;;;5042127;28;20028;-82
2023/03/19 01:27:51;;;;;;;0.60;0.55;;;;;;;;;;5044355;28;20037;-82
2023/03/19 01:30:16;;;;;;;1.05;0.82;;;;;;;;;;5040712;28;20478;-83
2023/03/19 01:32:42;;;;;;;0.52;0.52;;;;;;;;;;5045843;28;20019;-83
2023/03/19 01:35:08;;;;;;;1.48;0.90;;;;;;;;;;5042699;28;20033;-82
2023/03/19 01:37:34;;;;;;;1.55;0.82;;;;;;;;;;5055220;28;20025;-81
2023/03/19 01:40:00;;;;;;;0.82;0.73;;;;;;;;;;5040152;28;20037;-83
2023/03/19 01:42:25;;;;;;;0.80;0.70;;;;;;;;;;5038585;28;20040;-82
2023/03/19 01:44:51;;;;;;;0.68;0.65;;;;;;;;;;5042129;28;20025;-82
2023/03/19 01:47:33;;;;;;;0.57;0.57;;;;;;;;;;5036740;28;20030;-82
2023/03/19 01:49:58;;;;;;;0.98;0.60;;;;;;;;;;5046168;28;20052;-83
2023/03/19 01:52:27;;;;;;;1.98;0.70;;;;;;;;;;5040297;28;20049;-83
2023/03/19 01:54:55;;;;;;;2.03;0.98;;;;;;;;;;5035551;28;20564;-82
2023/03/19 01:57:22;;;;;;;0.40;0.40;;;;;;;;;;5044326;28;20029;-82
2023/03/19 01:59:51;;;;;;;0.30;0.30;;;;;;;;;;5049010;28;20393;-81
2023/03/19 02:02:26;;;;;;;0.80;0.75;;;;;;;;;;5038514;28;20053;-82
2023/03/19 02:05:05;;;;;;;2.50;1.70;;;;;;;;;;5041844;28;20033;-82
2023/03/19 02:07:33;;;;;;;0.53;0.53;;;;;;;;;;5048549;28;20021;-82
2023/03/19 02:10:00;;;;;;;0.63;0.63;;;;;;;;;;5042396;28;20265;-82
2023/03/19 02:12:26;;;;;;;2.33;1.50;;;;;;;;;;5043765;28;20542;-82
2023/03/19 02:14:52;;;;;;;0.60;0.60;;;;;;;;;;5051735;28;20025;-83
2023/03/19 02:17:20;;;;;;;0.35;0.35;;;;;;;;;;5037929;28;20029;-82
2023/03/19 02:19:54;;;;;;;0.60;0.60;;;;;;;;;;5040983;28;20021;-82
2023/03/19 02:22:23;;;;;;;1.15;1.02;;;;;;;;;;5041319;28;20030;-82
2023/03/19 02:25:05;;;;;;;1.13;1.13;;;;;;;;;;5042291;28;20151;-82
2023/03/19 02:27:30;;;;;;;0.63;0.63;;;;;;;;;;5040615;28;20070;-82
2023/03/19 02:29:56;;;;;;;0.47;0.47;;;;;;;;;;5044018;28;20033;-82
2023/03/19 02:32:21;;;;;;;1.05;0.95;;;;;;;;;;5039436;28;20116;-83
2023/03/19 02:34:47;;;;;;;2.88;0.88;;;;;;;;;;5048630;28;20075;-82
2023/03/19 02:37:23;;;;;;;2.05;1.02;;;;;;;;;;5039322;28;20049;-83
2023/03/19 02:39:56;;;;;;;1.10;0.80;;;;;;;;;;5048742;28;20484;-83
2023/03/19 02:42:25;;;;;;;0.80;0.80;;;;;;;;;;5044324;28;20037;-83
2023/03/19 02:44:50;;;;;;;0.32;0.32;;;;;;;;;;5060119;28;20109;-83
2023/03/19 02:47:16;;;;;;;0.40;0.40;;;;;;;;;;5039541;28;20045;-83
2023/03/19 02:49:41;;;;;;;1.50;0.93;;;;;;;;;;5040273;28;20087;-83
2023/03/19 02:52:08;;;;;;;0.98;0.98;;;;;;;;;;5041682;28;20029;-83
2023/03/19 02:54:33;;;;;;;0.80;0.80;;;;;;;;;;5045817;28;20025;-83
2023/03/19 02:56:58;;;;;;;0.60;0.60;;;;;;;;;;5039885;28;20451;-82
2023/03/19 02:59:24;;;;;;;2.20;0.90;;;;;;;;;;5038733;28;20029;-82
2023/03/19 03:01:49;;;;;;;0.85;0.85;;;;;;;;;;5041863;28;20042;-82
2023/03/19 03:04:15;;;;;;;0.40;0.40;;;;;;;;;;5040570;28;20060;-84
2023/03/19 03:06:42;;;;;;;1.20;0.73;;;;;;;;;;5043948;28;20025;-83
2023/03/19 03:09:08;;;;;;;1.88;1.45;;;;;;;;;;5038756;28;20025;-83
2023/03/19 03:11:34;;;;;;;1.10;0.82;;;;;;;;;;5037176;28;20025;-83
2023/03/19 03:14:00;;;;;;;0.63;0.45;;;;;;;;;;5042453;28;20068;-84
2023/03/19 03:16:26;;;;;;;0.52;0.52;;;;;;;;;;5035794;28;20022;-84
2023/03/19 03:18:51;;;;;;;0.57;0.57;;;;;;;;;;5040126;28;20040;-84
2023/03/19 03:21:18;;;;;;;1.00;0.93;;;;;;;;;;5042730;28;20025;-83
2023/03/19 03:23:44;;;;;;;0.20;0.20;;;;;;;;;;5041569;28;20021;-83
2023/03/19 03:26:10;;;;;;;5.07;1.38;;;;;;;;;;5042399;28;20491;-83
2023/03/19 03:28:36;;;;;;;0.30;0.30;;;;;;;;;;5044816;28;20530;-83
2023/03/19 03:31:02;;;;;;;0.75;0.75;;;;;;;;;;5042785;28;20104;-83
2023/03/19 03:33:28;;;;;;;0.30;0.30;;;;;;;;;;5041893;28;20373;-83
2023/03/19 03:35:53;;;;;;;0.55;0.50;;;;;;;;;;5043611;28;20030;-84
2023/03/19 03:38:19;;;;;;;0.50;0.50;;;;;;;;;;5040917;28;20106;-82
2023/03/19 03:40:48;;;;;;;1.02;0.93;;;;;;;;;;5042521;28;20847;-82
2023/03/19 03:43:14;;;;;;;0.93;0.70;;;;;;;;;;5042383;28;20366;-82
2023/03/19 03:45:40;;;;;;;0.90;0.82;;;;;;;;;;5042327;28;20103;-83
2023/03/19 03:48:06;;;;;;;0.63;0.63;;;;;;;;;;5048415;28;20029;-84
2023/03/19 03:50:31;;;;;;;0.82;0.82;;;;;;;;;;5043698;28;20385;-82
2023/03/19 03:52:56;;;;;;;0.65;0.40;;;;;;;;;;5039088;28;20053;-82
2023/03/19 03:55:22;;;;;;;0.47;0.47;;;;;;;;;;5039509;28;20412;-83
2023/03/19 03:57:48;;;;;;;1.02;0.82;;;;;;;;;;5037900;28;20545;-82
2023/03/19 04:00:14;;;;;;;0.60;0.40;;;;;;;;;;5044073;28;20081;-81
2023/03/19 04:02:39;;;;;;;1.95;1.02;;;;;;;;;;5041408;28;20072;-82
2023/03/19 04:05:05;;;;;;;0.40;0.40;;;;;;;;;;5042426;28;20087;-82
2023/03/19 04:07:30;;;;;;;0.60;0.60;;;;;;;;;;5040922;28;20028;-83
2023/03/19 04:09:58;;;;;;;0.85;0.70;;;;;;;;;;5039745;28;20034;-83
2023/03/19 04:12:23;;;;;;;0.50;0.50;;;;;;;;;;5039333;28;20100;-83
2023/03/19 04:14:49;;;;;;;0.20;0.20;;;;;;;;;;5045066;28;20045;-82
2023/03/19 04:17:14;;;;;;;1.15;1.05;;;;;;;;;;5042859;28;20052;-82
2023/03/19 04:19:42;;;;;;;0.63;0.55;;;;;;;;;;5046852;28;20029;-82
2023/03/19 04:22:07;;;;;;;2.78;0.68;;;;;;;;;;5041437;28;20025;-84
2023/03/19 04:24:33;;;;;;;4.28;1.00;;;;;;;;;;5043591;28;20388;-83
2023/03/19 04:26:58;;;;;;;0.77;0.73;;;;;;;;;;5038856;28;20461;-83
2023/03/19 04:29:24;;;;;;;1.25;1.15;;;;;;;;;;5039923;28;20022;-84
2023/03/19 04:31:50;;;;;;;0.68;0.68;;;;;;;;;;5040850;28;20067;-82
2023/03/19 04:34:16;;;;;;;0.40;0.40;;;;;;;;;;5041214;28;20373;-83
2023/03/19 04:36:42;;;;;;;1.23;0.52;;;;;;;;;;5047502;28;20040;-83
2023/03/19 04:39:08;;;;;;;0.75;0.65;;;;;;;;;;5043679;28;20029;-83
2023/03/19 04:41:33;;;;;;;1.75;0.85;;;;;;;;;;5044449;28;20033;-83
2023/03/19 04:43:58;;;;;;;0.52;0.52;;;;;;;;;;5046045;28;20096;-83
2023/03/19 04:46:24;;;;;;;0.60;0.55;;;;;;;;;;5045661;28;20029;-83
2023/03/19 04:48:50;;;;;;;1.42;0.60;;;;;;;;;;5047141;28;20078;-84
2023/03/19 04:51:16;;;;;;;2.38;0.85;;;;;;;;;;5047817;28;20090;-84
2023/03/19 04:53:41;;;;;;;0.98;0.98;;;;;;;;;;5047933;28;20484;-83
2023/03/19 04:56:07;;;;;;;1.50;0.85;;;;;;;;;;5046120;28;20040;-83
2023/03/19 04:58:33;;;;;;;1.27;1.10;;;;;;;;;;5048189;28;20024;-85
2023/03/19 05:00:59;;;;;;;1.73;1.40;;;;;;;;;;5042349;28;20492;-83
2023/03/19 05:03:25;;;;;;;0.63;0.52;;;;;;;;;;5042476;28;20021;-83
2023/03/19 05:05:52;;;;;;;0.75;0.75;;;;;;;;;;5049544;28;20037;-82
2023/03/19 05:08:18;;;;;;;0.95;0.75;;;;;;;;;;5046338;28;20025;-82
2023/03/19 05:10:43;;;;;;;1.15;1.05;;;;;;;;;;5061093;28;20040;-82
2023/03/19 05:13:09;;;;;;;0.98;0.90;;;;;;;;;;5048321;28;20084;-83
2023/03/19 05:15:34;;;;;;;0.50;0.50;;;;;;;;;;5039388;28;20029;-83
2023/03/19 05:18:00;;;;;;;1.10;0.77;;;;;;;;;;5040271;28;20484;-84
2023/03/19 05:20:25;;;;;;;6.07;1.48;;;;;;;;;;5039282;28;20025;-83
2023/03/19 05:22:52;;;;;;;1.08;1.02;;;;;;;;;;5043917;28;20052;-83
2023/03/19 05:25:18;;;;;;;1.33;1.23;;;;;;;;;;5041442;28;20026;-81
2023/03/19 05:27:44;;;;;;;0.68;0.50;;;;;;;;;;5042209;28;20043;-80
2023/03/19 05:30:11;;;;;;;0.65;0.63;;;;;;;;;;5036556;28;20036;-79
2023/03/19 05:32:37;;;;;;;1.17;1.02;;;;;;;;;;5037034;28;20028;-80
2023/03/19 05:35:03;;;;;;;1.85;0.93;;;;;;;;;;5040715;28;20388;-82
2023/03/19 05:37:28;;;;;;;3.15;1.75;;;;;;;;;;5039020;28;20025;-81
2023/03/19 05:39:54;;;;;;;3.42;1.58;;;;;;;;;;5043445;28;20522;-83
2023/03/19 05:42:20;;;;;;;4.18;1.80;;;;;;;;;;5042867;28;20178;-82
2023/03/19 05:44:45;;;;;;;0.70;0.70;;;;;;;;;;5034951;28;20045;-82
2023/03/19 05:47:11;;;;;;;1.48;1.38;;;;;;;;;;5038345;28;20854;-83
2023/03/19 05:50:02;;;;;;;1.05;0.70;;;;;;;;;;5040173;28;20057;-83
2023/03/19 05:52:27;;;;;;;3.00;1.95;;;;;;;;;;5038661;28;20027;-83
2023/03/19 05:54:52;;;;;;;4.13;1.52;;;;;;;;;;5037595;28;20025;-84
2023/03/19 05:57:18;;;;;;;5.68;3.60;;;;;;;;;;5041350;28;20033;-84
2023/03/19 05:59:43;;;;;;;7.50;1.45;;;;;;;;;;5041744;28;20041;-83
2023/03/19 06:02:09;;;;;;;4.07;1.38;;;;;;;;;;5038747;28;20527;-83
2023/03/19 06:04:35;;;;;;;3.88;2.33;;;;;;;;;;5044434;28;20469;-82
2023/03/19 06:07:00;;;;;;;3.05;1.95;;;;;;;;;;5040447;28;20393;-80
2023/03/19 06:09:26;;;;;;;2.70;2.45;;;;;;;;;;5042830;28;20055;-79
2023/03/19 06:11:51;;;;;;;5.95;3.00;;;;;;;;;;5043906;28;20021;-79
2023/03/19 06:14:17;;;;;;;3.95;2.22;;;;;;;;;;5043276;28;20052;-81
2023/03/19 06:16:42;;;;;;;6.05;3.15;;;;;;;;;;5038843;28;20025;-80
2023/03/19 06:19:07;;;;;;;4.50;2.70;;;;;;;;;;5041607;28;20021;-79
2023/03/19 06:21:33;;;;;;;3.08;2.25;;;;;;;;;;5044846;28;20055;-80
2023/03/19 06:23:59;;;;;;;2.28;1.90;;;;;;;;;;5045360;28;20025;-79
2023/03/19 06:26:25;;;;;;;2.30;2.10;;;;;;;;;;5032679;28;20038;-79
2023/03/19 06:28:51;;;;;;;2.45;1.98;;;;;;;;;;5037247;28;20029;-79
2023/03/19 06:31:17;;;;;;;3.88;2.58;;;;;;;;;;5036920;28;20040;-80
2023/03/19 06:33:42;;;;;;;5.30;2.28;;;;;;;;;;5035158;28;20021;-79
2023/03/19 06:36:08;;;;;;;1.88;1.42;;;;;;;;;;5034578;28;20120;-80
2023/03/19 06:38:34;;;;;;;8.10;1.90;;;;;;;;;;5036770;28;20024;-79
2023/03/19 06:41:00;;;;;;;6.50;1.77;;;;;;;;;;5033098;28;20103;-80
2023/03/19 06:43:26;;;;;;;5.35;2.25;;;;;;;;;;5036095;28;20070;-80
2023/03/19 06:45:51;;;;;;;3.55;1.17;;;;;;;;;;5038052;28;20041;-81
2023/03/19 06:48:17;;;;;;;2.80;1.70;;;;;;;;;;5043256;28;20579;-80
2023/03/19 06:50:45;;;;;;;1.17;1.08;;;;;;;;;;5044432;28;20385;-80
2023/03/19 06:53:11;;;;;;;2.92;1.88;;;;;;;;;;5067476;28;20029;-79
2023/03/19 06:55:36;;;;;;;4.63;2.05;;;;;;;;;;5038240;28;20039;-80
2023/03/19 06:58:02;;;;;;;3.42;1.63;;;;;;;;;;5044062;28;20111;-79
2023/03/19 07:00:27;;;;;;;2.88;2.13;;;;;;;;;;5034079;28;20047;-80
2023/03/19 07:02:53;;;;;;;4.70;3.08;;;;;;;;;;5031799;28;20068;-83
2023/03/19 07:05:18;;;;;;;3.55;1.35;;;;;;;;;;5043568;28;20474;-80
2023/03/19 07:07:44;;;;;;;1.50;1.40;;;;;;;;;;5039547;28;20021;-81
2023/03/19 07:10:09;;;;;;;3.10;1.65;;;;;;;;;;5045207;28;20461;-80
2023/03/19 07:12:35;;;;;;;3.60;1.88;;;;;;;;;;5031115;28;20083;-81
2023/03/19 07:15:00;;;;;;;9.98;1.95;;;;;;;;;;5038808;28;20067;-80
2023/03/19 07:17:26;;;;;;;3.95;2.40;;;;;;;;;;5037652;28;20064;-80
2023/03/19 07:19:51;;;;;;;3.72;2.20;;;;;;;;;;5038510;28;20033;-80
2023/03/19 07:22:17;;;;;;;3.47;1.77;;;;;;;;;;5045337;28;20032;-81
2023/03/19 07:24:43;;;;;;;2.00;1.80;;;;;;;;;;5037747;28;20060;-80
2023/03/19 07:27:09;;;;;;;2.80;1.90;;;;;;;;;;5040551;28;20580;-81
2023/03/19 07:29:35;;;;;;;6.40;2.88;;;;;;;;;;5039035;28;20076;-80
2023/03/19 07:32:00;;;;;;;2.90;1.70;;;;;;;;;;5027810;28;20440;-80
2023/03/19 07:34:26;;;;;;;2.92;1.98;;;;;;;;;;5046662;28;20025;-79
2023/03/19 07:36:52;;;;;;;8.02;2.95;;;;;;;;;;5034592;28;20021;-79
2023/03/19 07:39:17;;;;;;;3.22;2.08;;;;;;;;;;5036633;28;20156;-79
2023/03/19 07:41:43;;;;;;;3.83;2.55;;;;;;;;;;5039084;28;20017;-78
2023/03/19 07:44:10;;;;;;;7.32;2.80;;;;;;;;;;5044678;28;20030;-79
2023/03/19 07:46:35;;;;;;;2.03;1.70;;;;;;;;;;5035237;28;20035;-79
2023/03/19 07:49:01;;;;;;;5.47;3.47;;;;;;;;;;5035632;28;20032;-79
2023/03/19 07:51:26;;;;;;;3.92;2.50;;;;;;;;;;5035380;28;20028;-79
2023/03/19 07:53:52;;;;;;;5.97;2.33;;;;;;;;;;5032033;28;20021;-81
2023/03/19 07:56:18;;;;;;;2.63;1.92;;;;;;;;;;5040430;28;20485;-82
2023/03/19 07:58:45;;;;;;;3.60;2.47;;;;;;;;;;5038820;28;20032;-83
2023/03/19 08:01:10;;;;;;;2.97;2.60;;;;;;;;;;5037437;28;20498;-81
2023/03/19 08:03:35;;;;;;;5.40;2.80;;;;;;;;;;5037468;28;20036;-82
2023/03/19 08:06:02;;;;;;;5.40;2.42;;;;;;;;;;5039718;28;20025;-82
2023/03/19 08:08:28;;;;;;;3.80;2.78;;;;;;;;;;5040930;28;20527;-81
2023/03/19 08:10:53;;;;;;;4.90;2.15;;;;;;;;;;5036528;28;20026;-82
2023/03/19 08:13:19;;;;;;;4.97;2.17;;;;;;;;;;5040561;28;20488;-82
2023/03/19 08:15:44;;;;;;;5.43;2.97;;;;;;;;;;5072107;28;20100;-81
2023/03/19 08:18:10;;;;;;;7.88;2.83;;;;;;;;;;5036556;28;20026;-85
2023/03/19 08:20:35;;;;;;;8.18;4.55;;;;;;;;;;5037657;28;20775;-84
2023/03/19 08:23:01;;;;;;;2.55;2.35;;;;;;;;;;5038993;28;20132;-86
2023/03/19 08:25:31;;;;;;;2.30;2.10;;;;;;;;;;5057377;28;20048;-85
2023/03/19 08:27:57;;;;;;;5.55;3.30;;;;;;;;;;5042741;28;20028;-85
2023/03/19 08:30:22;;;;;;;7.20;3.38;;;;;;;;;;5040012;28;20024;-87
2023/03/19 08:32:49;;;;;;;4.65;3.28;;;;;;;;;;5053511;28;20446;-86
2023/03/19 08:35:15;;;;;;;4.07;2.25;;;;;;;;;;5040326;28;20033;-85
2023/03/19 08:37:40;;;;;;;5.60;2.40;;;;;;;;;;5039910;28;20036;-86
2023/03/19 08:40:07;;;;;;;4.38;3.17;;;;;;;;;;5042756;28;20031;-86
2023/03/19 08:42:33;;;;;;;6.18;3.10;;;;;;;;;;5043416;28;20037;-85
2023/03/19 08:44:59;;;;;;;5.43;3.53;;;;;;;;;;5040873;28;20031;-86
2023/03/19 08:47:25;;;;;;;3.85;3.00;;;;;;;;;;5041182;28;20020;-85
2023/03/19 08:49:51;;;;;;;8.05;4.10;;;;;;;;;;5039799;28;20467;-84
2023/03/19 08:52:17;;;;;;;6.22;3.40;;;;;;;;;;5038071;28;20119;-85
2023/03/19 08:54:43;;;;;;;3.03;2.25;;;;;;;;;;5037796;28;20060;-85
2023/03/19 08:57:08;;;;;;;5.43;3.60;;;;;;;;;;5040046;28;20075;-81
2023/03/19 08:59:34;;;;;;;6.55;3.75;;;;;;;;;;5037086;28;20028;-83
2023/03/19 09:01:59;;;;;;;3.28;2.45;;;;;;;;;;5039881;28;20108;-84
2023/03/19 09:04:25;;;;;;;4.18;3.15;;;;;;;;;;5039806;28;20021;-83
2023/03/19 09:06:50;;;;;;;7.40;4.00;;;;;;;;;;5039364;28;20053;-84
2023/03/19 09:09:19;;;;;;;3.17;2.72;;;;;;;;;;5039159;28;20025;-84
2023/03/19 09:11:45;;;;;;;9.07;4.73;;;;;;;;;;5034649;28;20045;-84
2023/03/19 09:14:12;;;;;;;7.50;2.88;;;;;;;;;;5033661;28;20021;-84
2023/03/19 09:16:38;;;;;;;5.97;3.08;;;;;;;;;;5040820;28;20082;-83
2023/03/19 09:19:04;;;;;;;5.18;3.00;;;;;;;;;;5040364;28;20028;-83
2023/03/19 09:21:30;;;;;;;18.77;9.48;;;;;;;;;;5038522;28;20029;-85
2023/03/19 09:23:56;;;;;;;7.13;4.32;;;;;;;;;;5054653;28;20389;-83
2023/03/19 09:26:21;;;;;;;7.50;3.95;;;;;;;;;;5041886;28;20017;-83
2023/03/19 09:28:47;;;;;;;9.10;3.65;;;;;;;;;;5045057;28;20037;-82
2023/03/19 09:31:12;;;;;;;8.77;2.92;;;;;;;;;;5039493;28;20104;-84
2023/03/19 09:33:38;;;;;;;5.28;3.47;;;;;;;;;;5038475;28;20393;-83
2023/03/19 09:36:03;;;;;;;5.88;2.85;;;;;;;;;;5055086;28;20025;-85
2023/03/19 09:38:30;;;;;;;7.97;4.18;;;;;;;;;;5042383;28;20111;-84
2023/03/19 09:41:06;;;;;;;3.85;2.80;;;;;;;;;;5035645;28;20381;-85
2023/03/19 09:43:46;;;;;;;4.97;3.03;;;;;;;;;;5036403;28;20025;-85
2023/03/19 09:46:19;;;;;;;6.28;3.60;;;;;;;;;;5038521;28;20384;-83
2023/03/19 09:48:48;;;;;;;6.50;3.00;;;;;;;;;;5038081;28;20033;-85
2023/03/19 09:51:20;;;;;;;8.77;3.80;;;;;;;;;;5038340;28;20032;-83
2023/03/19 09:54:03;;;;;;;5.15;3.17;;;;;;;;;;5042522;28;20021;-84
2023/03/19 09:56:31;;;;;;;8.18;3.47;;;;;;;;;;5042678;28;20025;-84
2023/03/19 09:58:57;;;;;;;7.30;4.13;;;;;;;;;;5039610;28;20107;-84
2023/03/19 10:01:55;;;;;;;8.85;3.50;;;;;;;;;;5031143;28;20159;-84
2023/03/19 10:04:32;;;;;;;5.82;3.35;;;;;;;;;;5033796;28;20190;-84
2023/03/19 10:07:18;;;;;;;10.85;3.85;;;;;;;;;;5040086;28;20116;-85
2023/03/19 10:09:46;;;;;;;5.40;4.05;;;;;;;;;;5049990;28;20041;-81
2023/03/19 10:12:21;;;;;;;6.68;5.55;;;;;;;;;;5032083;28;20034;-81
2023/03/19 10:15:00;;;;;;;12.73;4.18;;;;;;;;;;5035356;28;20083;-81
2023/03/19 10:18:06;;;;;;;16.00;4.60;;;;;;;;;;5035743;28;20478;-82
2023/03/19 10:20:52;;;;;;;5.65;3.20;;;;;;;;;;5023581;28;20026;-80
2023/03/19 10:23:33;;;;;;;6.07;3.67;;;;;;;;;;5034353;28;20043;-81
2023/03/19 10:26:01;;;;;;;4.25;2.97;;;;;;;;;;5066983;28;20112;-81
2023/03/19 10:28:28;;;;;;;7.03;4.18;;;;;;;;;;5041913;28;20477;-81
2023/03/19 10:31:18;;;;;;;6.47;3.78;;;;;;;;;;5036141;28;20418;-81
2023/03/19 10:33:57;;;;;;;8.65;4.00;;;;;;;;;;5034218;28;20033;-82
2023/03/19 10:36:29;;;;;;;5.28;3.35;;;;;;;;;;5043319;28;20085;-83
2023/03/19 10:38:55;;;;;;;5.40;3.55;;;;;;;;;;5038930;28;20029;-80
2023/03/19 10:41:39;;;;;;;7.75;3.83;;;;;;;;;;5041534;28;20388;-81
2023/03/19 10:44:32;;;;;;;4.32;3.50;;;;;;;;;;5036452;28;20037;-82
2023/03/19 10:46:58;;;;;;;8.80;4.15;;;;;;;;;;5044616;28;20064;-83
2023/03/19 10:49:25;;;;;;;6.30;4.13;;;;;;;;;;5035467;28;20037;-80
2023/03/19 10:51:51;;;;;;;6.18;3.78;;;;;;;;;;5035272;28;20558;-79
2023/03/19 10:54:25;;;;;;;6.32;4.18;;;;;;;;;;5035682;28;20017;-81
2023/03/19 10:56:54;;;;;;;4.68;3.55;;;;;;;;;;5035997;28;20545;-80
2023/03/19 10:59:22;;;;;;;5.28;3.33;;;;;;;;;;5032783;28;20033;-81
2023/03/19 11:01:48;;;;;;;6.45;3.42;;;;;;;;;;5035242;28;20507;-80
2023/03/19 11:04:17;;;;;;;6.65;3.88;;;;;;;;;;5035846;28;20117;-84
2023/03/19 11:06:51;;;;;;;5.88;3.85;;;;;;;;;;5035296;28;20029;-80
2023/03/19 11:09:33;;;;;;;9.00;4.78;;;;;;;;;;5033493;28;20075;-80
2023/03/19 11:12:32;;;;;;;7.57;3.92;;;;;;;;;;5034679;28;20389;-80
2023/03/19 11:14:59;;;;;;;3.88;2.30;;;;;;;;;;5030480;28;20030;-81
2023/03/19 11:17:28;;;;;;;5.88;3.28;;;;;;;;;;5039982;28;20087;-79
2023/03/19 11:19:56;;;;;;;5.65;3.13;;;;;;;;;;5039045;28;20040;-80
2023/03/19 11:22:23;;;;;;;5.43;3.47;;;;;;;;;;5037541;28;20111;-80
2023/03/19 11:24:59;;;;;;;5.07;2.67;;;;;;;;;;5036835;28;20029;-80
2023/03/19 11:27:27;;;;;;;7.10;3.65;;;;;;;;;;5057735;28;20035;-80
2023/03/19 11:29:53;;;;;;;4.93;3.20;;;;;;;;;;5039988;28;20055;-80
2023/03/19 11:32:34;;;;;;;4.53;3.20;;;;;;;;;;5041682;28;20036;-80
2023/03/19 11:35:15;;;;;;;5.95;2.88;;;;;;;;;;5033058;28;20103;-80
2023/03/19 11:37:55;;;;;;;8.45;3.17;;;;;;;;;;5042001;28;20484;-80
2023/03/19 11:40:43;;;;;;;8.95;3.70;;;;;;;;;;5030661;28;20052;-81
2023/03/19 11:43:18;;;;;;;6.82;3.53;;;;;;;;;;5029557;28;20038;-81
2023/03/19 11:46:07;;;;;;;7.60;3.33;;;;;;;;;;5027001;28;20025;-79
2023/03/19 11:49:04;;;;;;;5.03;2.90;;;;;;;;;;5029683;28;20072;-80
2023/03/19 11:51:55;;;;;;;6.53;4.35;;;;;;;;;;5034712;28;20452;-80
2023/03/19 11:54:47;;;;;;;6.45;3.20;;;;;;;;;;5029156;28;20021;-80
2023/03/19 11:57:17;;;;;;;4.30;2.65;;;;;;;;;;5036401;28;20075;-81
2023/03/19 12:00:03;;;;;;;6.45;3.85;;;;;;;;;;5040470;28;20065;-80
2023/03/19 12:02:56;;;;;;;5.93;3.17;;;;;;;;;;5022400;28;20045;-80
2023/03/19 12:05:32;;;;;;;3.97;2.72;;;;;;;;;;5043270;28;20029;-79
2023/03/19 12:08:11;;;;;;;4.97;2.80;;;;;;;;;;5038051;28;20056;-80
2023/03/19 12:10:49;;;;;;;6.78;2.88;;;;;;;;;;5030918;28;20021;-81
2023/03/19 12:13:34;;;;;;;4.40;2.83;;;;;;;;;;5035751;28;20026;-79
2023/03/19 12:16:25;;;;;;;13.52;4.25;;;;;;;;;;5029834;28;20034;-81
2023/03/19 12:19:10;;;;;;;8.70;3.72;;;;;;;;;;5023169;28;20053;-81
2023/03/19 12:21:54;;;;;;;5.63;3.10;;;;;;;;;;5033566;28;20033;-80
2023/03/19 12:24:27;;;;;;;5.15;3.17;;;;;;;;;;5060713;28;20020;-79
2023/03/19 12:27:12;;;;;;;6.55;3.72;;;;;;;;;;5028596;28;20025;-79
2023/03/19 12:30:02;;;;;;;4.18;2.95;;;;;;;;;;5030723;28;20106;-80
2023/03/19 12:32:54;;;;;;;5.70;3.30;;;;;;;;;;5036286;28;20033;-82
2023/03/19 12:35:42;;;;;;;5.35;3.53;;;;;;;;;;5045177;28;20039;-82
2023/03/19 12:38:37;;;;;;;5.30;3.00;;;;;;;;;;5032647;28;20022;-81
2023/03/19 12:41:11;;;;;;;6.60;2.75;;;;;;;;;;5028659;28;20128;-79
2023/03/19 12:43:48;;;;;;;4.22;2.38;;;;;;;;;;5030043;28;20450;-78
2023/03/19 12:46:37;;;;;;;5.68;3.05;;;;;;;;;;5040346;28;20413;-79
2023/03/19 12:49:14;;;;;;;4.63;3.03;;;;;;;;;;5041775;28;20465;-79
2023/03/19 12:51:45;;;;;;;3.20;2.42;;;;;;;;;;5037079;28;20021;-80
2023/03/19 12:54:17;;;;;;;7.53;3.13;;;;;;;;;;5035452;28;20388;-80
2023/03/19 12:56:58;;;;;;;8.20;3.90;;;;;;;;;;5040731;28;20465;-80
2023/03/19 13:00:16;;;;;;;4.80;3.15;;;;;;;;;;5036561;28;20095;-80
2023/03/19 13:02:56;;;;;;;9.30;5.30;;;;;;;;;;5012946;28;20048;-80
2023/03/19 13:05:40;;;;;;;19.23;11.18;;;;;;;;;;5041419;28;20033;-82
2023/03/19 13:08:33;;;;;;;6.75;4.18;;;;;;;;;;5049118;28;20384;-82
2023/03/19 13:11:00;;;;;;;5.88;3.08;;;;;;;;;;5039199;28;20497;-81
2023/03/19 13:13:46;;;;;;;3.85;2.88;;;;;;;;;;5038989;28;20355;-81
2023/03/19 13:16:14;;;;;;;4.43;3.08;;;;;;;;;;5035773;28;20108;-80
2023/03/19 13:18:50;;;;;;;5.72;2.97;;;;;;;;;;5031018;28;20871;-82
2023/03/19 13:21:15;;;;;;;4.63;2.90;;;;;;;;;;5042783;28;20025;-81
2023/03/19 13:23:44;;;;;;;5.65;3.22;;;;;;;;;;5038749;28;20632;-82
2023/03/19 13:26:11;;;;;;;7.63;3.13;;;;;;;;;;5033835;28;20624;-82
2023/03/19 13:28:52;;;;;;;5.97;2.65;;;;;;;;;;5032045;28;20435;-81
2023/03/19 13:31:24;;;;;;;5.63;2.88;;;;;;;;;;5033290;28;20500;-81
2023/03/19 13:34:15;;;;;;;7.45;3.55;;;;;;;;;;5042458;28;20112;-80
2023/03/19 13:36:42;;;;;;;5.55;3.45;;;;;;;;;;5029364;28;20037;-80
2023/03/19 13:39:16;;;;;;;6.30;3.40;;;;;;;;;;5037079;28;20021;-78
2023/03/19 13:41:42;;;;;;;5.57;2.90;;;;;;;;;;5058225;28;20025;-78
2023/03/19 13:44:26;;;;;;;4.43;3.05;;;;;;;;;;5036883;28;20036;-80
2023/03/19 13:46:52;;;;;;;4.88;2.90;;;;;;;;;;5058180;28;20798;-82
2023/03/19 13:49:30;;;;;;;8.57;3.28;;;;;;;;;;5046403;28;20082;-80
2023/03/19 13:52:09;;;;;;;5.55;3.08;;;;;;;;;;5041250;28;20035;-81
2023/03/19 13:54:39;;;;;;;4.68;3.28;;;;;;;;;;5032051;28;20022;-81
2023/03/19 13:57:18;;;;;;;9.00;5.38;;;;;;;;;;5042549;28;20473;-81
2023/03/19 13:59:46;;;;;;;8.13;4.23;;;;;;;;;;5033345;28;20040;-81
2023/03/19 14:02:17;;;;;;;7.93;3.20;;;;;;;;;;5030237;28;20635;-81
2023/03/19 14:04:51;;;;;;;4.25;3.20;;;;;;;;;;5032638;28;20038;-81
2023/03/19 14:07:21;;;;;;;6.75;3.80;;;;;;;;;;5037712;28;20029;-81
2023/03/19 14:10:06;;;;;;;4.93;3.25;;;;;;;;;;5032730;28;20041;-79
2023/03/19 14:12:40;;;;;;;5.72;3.15;;;;;;;;;;5031174;28;20129;-80
2023/03/19 14:15:08;;;;;;;5.47;3.50;;;;;;;;;;5036492;28;20040;-80
2023/03/19 14:17:42;;;;;;;6.07;2.67;;;;;;;;;;5032431;28;20103;-80
2023/03/19 14:20:10;;;;;;;5.80;3.20;;;;;;;;;;5035548;28;20033;-82
2023/03/19 14:22:40;;;;;;;6.10;4.03;;;;;;;;;;5032444;28;20029;-82
2023/03/19 14:25:16;;;;;;;3.88;2.83;;;;;;;;;;5043229;28;20378;-81
2023/03/19 14:27:50;;;;;;;7.53;3.30;;;;;;;;;;5035028;28;20109;-82
2023/03/19 14:30:43;;;;;;;5.22;3.28;;;;;;;;;;5049813;28;20020;-80
2023/03/19 14:33:37;;;;;;;5.18;3.50;;;;;;;;;;5044655;28;20053;-82
2023/03/19 14:36:04;;;;;;;5.35;3.22;;;;;;;;;;5030207;28;20029;-81
2023/03/19 14:38:42;;;;;;;5.20;3.00;;;;;;;;;;5032685;28;20493;-81
2023/03/19 14:41:15;;;;;;;7.78;3.20;;;;;;;;;;5032260;28;20421;-80
2023/03/19 14:44:08;;;;;;;5.80;3.17;;;;;;;;;;5031419;28;20079;-80
2023/03/19 14:47:18;;;;;;;8.35;3.30;;;;;;;;;;5041700;28;20127;-81
2023/03/19 14:50:05;;;;;;;7.22;3.22;;;;;;;;;;5040344;28;20080;-80
2023/03/19 14:52:35;;;;;;;5.75;3.33;;;;;;;;;;5045191;28;20090;-79
2023/03/19 14:55:16;;;;;;;10.20;7.43;;;;;;;;;;5033490;28;20104;-82
2023/03/19 14:57:42;;;;;;;6.35;4.60;;;;;;;;;;5035403;28;20393;-80
2023/03/19 15:00:14;;;;;;;7.15;5.40;;;;;;;;;;5030429;28;20025;-81
2023/03/19 15:02:43;;;;;;;5.95;3.30;;;;;;;;;;5041403;28;20045;-82